createdAt,value
2022-08-03T00:01:25.359Z,70.39
2022-08-03T00:03:53.339Z,70.55
2022-08-03T00:06:19.888Z,70.52
2022-08-03T00:08:46.518Z,70.84
2022-08-03T00:11:13.137Z,71.31
2022-08-03T00:13:39.743Z,71.22
2022-08-03T00:16:06.355Z,71.44
2022-08-03T00:18:32.923Z,71.36
2022-08-03T00:21:00.828Z,71.63
2022-08-03T00:23:31.748Z,71.62
2022-08-03T00:26:13.994Z,72.19
2022-08-03T00:28:40.522Z,72.55
2022-08-03T00:31:07.158Z,72.67
2022-08-03T00:33:57.942Z,72.64
2022-08-03T00:36:22.206Z,72.88
2022-08-03T00:38:48.810Z,73.18
2022-08-03T00:41:15.576Z,73.51
2022-08-03T00:43:42.296Z,73.74
2022-08-03T00:46:09.143Z,74.08
2022-08-03T00:48:35.714Z,74.29
2022-08-03T00:51:02.681Z,74.41
2022-08-03T00:53:31.121Z,74.87
2022-08-03T00:55:58.383Z,74.91
2022-08-03T00:58:24.963Z,74.82
2022-08-03T01:00:51.787Z,74.66
2022-08-03T01:03:18.397Z,74.93
2022-08-03T01:05:52.934Z,75.03
2022-08-03T01:08:28.202Z,75.40
2022-08-03T01:11:06.536Z,75.64
2022-08-03T01:14:01.365Z,75.71
2022-08-03T01:16:35.973Z,75.95
2022-08-03T01:19:31.164Z,75.94
2022-08-03T01:22:10.751Z,76.01
2022-08-03T01:24:45.536Z,76.32
2022-08-03T01:27:18.995Z,76.60
2022-08-03T01:30:02.208Z,76.56
2022-08-03T01:32:58.291Z,76.51
2022-08-03T01:35:29.506Z,76.50
2022-08-03T01:38:02.341Z,76.93
2022-08-03T01:40:31.182Z,77.20
2022-08-03T01:42:59.845Z,77.17
2022-08-03T01:45:30.109Z,77.13
2022-08-03T01:48:02.723Z,77.20
2022-08-03T01:50:31.633Z,77.70
2022-08-03T01:52:59.658Z,77.87
2022-08-03T01:55:26.970Z,78.02
2022-08-03T01:58:04.665Z,78.17
2022-08-03T02:00:36.463Z,78.15
2022-08-03T02:03:06.000Z,78.50
2022-08-03T02:05:33.769Z,78.60
2022-08-03T02:08:02.013Z,78.76
2022-08-03T02:10:35.193Z,78.69
2022-08-03T02:13:05.122Z,79.01
2022-08-03T02:15:33.493Z,79.14
2022-08-03T02:18:04.383Z,79.67
2022-08-03T02:20:32.541Z,79.50
2022-08-03T02:22:59.424Z,79.46
2022-08-03T02:25:26.218Z,79.73
2022-08-03T02:27:56.352Z,80.00
2022-08-03T02:30:29.747Z,80.24
2022-08-03T02:32:59.104Z,80.53
2022-08-03T02:35:29.399Z,80.80
2022-08-03T02:38:00.920Z,80.56
2022-08-03T02:40:28.265Z,81.05
2022-08-03T02:42:59.499Z,80.75
2022-08-03T02:45:28.635Z,80.95
2022-08-03T02:47:59.627Z,81.04
2022-08-03T02:50:29.356Z,81.11
2022-08-03T02:52:58.570Z,81.29
2022-08-03T02:55:27.244Z,81.77
2022-08-03T02:57:55.460Z,81.98
2022-08-03T03:00:27.554Z,82.19
2022-08-03T03:02:57.401Z,82.11
2022-08-03T03:05:52.906Z,81.70
2022-08-03T03:08:17.727Z,81.92
2022-08-03T03:10:46.411Z,81.76
2022-08-03T03:13:15.012Z,81.60
2022-08-03T03:15:43.278Z,81.66
2022-08-03T03:18:11.449Z,81.76
2022-08-03T03:20:39.659Z,82.17
2022-08-03T03:23:08.380Z,81.69
2022-08-03T03:25:37.240Z,81.51
2022-08-03T03:28:06.344Z,81.94
2022-08-03T03:30:34.575Z,82.02
2022-08-03T03:33:01.230Z,82.09
2022-08-03T03:35:28.221Z,81.90
2022-08-03T03:37:55.150Z,81.88
2022-08-03T03:40:22.098Z,81.90
2022-08-03T03:42:50.819Z,82.15
2022-08-03T03:45:18.595Z,82.17
2022-08-03T03:47:45.400Z,82.25
2022-08-03T03:50:12.494Z,82.44
2022-08-03T03:52:39.071Z,82.17
2022-08-03T03:55:06.978Z,82.31
2022-08-03T03:57:34.594Z,82.13
2022-08-03T04:00:03.198Z,81.81
2022-08-03T04:02:31.137Z,81.84
2022-08-03T04:04:57.988Z,82.21
2022-08-03T04:07:26.620Z,82.45
2022-08-03T04:09:54.876Z,82.49
2022-08-03T04:12:29.541Z,82.53
2022-08-03T04:14:58.918Z,82.76
2022-08-03T04:17:28.232Z,82.76
2022-08-03T04:19:57.138Z,83.08
2022-08-03T04:22:27.606Z,83.25
2022-08-03T04:24:58.760Z,83.29
2022-08-03T04:27:28.787Z,83.40
2022-08-03T04:29:57.540Z,83.16
2022-08-03T04:32:26.233Z,83.01
2022-08-03T04:34:54.536Z,82.64
2022-08-03T04:37:26.665Z,81.60
2022-08-03T04:39:56.962Z,80.74
2022-08-03T04:42:25.682Z,79.85
2022-08-03T04:45:00.455Z,79.00
2022-08-03T04:47:28.343Z,78.54
2022-08-03T04:49:56.598Z,77.76
2022-08-03T04:52:23.399Z,77.51
2022-08-03T04:54:51.032Z,76.97
2022-08-03T04:57:22.301Z,76.22
2022-08-03T04:59:50.410Z,76.08
2022-08-03T05:02:17.296Z,76.31
2022-08-03T05:04:44.221Z,75.94
2022-08-03T05:07:12.600Z,75.84
2022-08-03T05:09:50.783Z,75.75
2022-08-03T05:12:24.223Z,75.74
2022-08-03T05:14:50.933Z,75.34
2022-08-03T05:17:17.558Z,75.57
2022-08-03T05:19:44.260Z,75.71
2022-08-03T05:22:12.267Z,75.82
2022-08-03T05:24:38.818Z,75.88
2022-08-03T05:27:05.507Z,75.88
2022-08-03T05:29:32.057Z,75.92
2022-08-03T05:31:58.705Z,76.08
2022-08-03T05:34:25.629Z,76.01
2022-08-03T05:36:52.595Z,75.92
2022-08-03T05:39:20.550Z,75.61
2022-08-03T05:41:47.228Z,75.36
2022-08-03T05:44:13.967Z,75.34
2022-08-03T05:46:40.612Z,75.25
2022-08-03T05:49:07.243Z,75.01
2022-08-03T05:51:34.307Z,74.66
2022-08-03T05:54:00.993Z,74.38
2022-08-03T05:56:29.095Z,74.30
2022-08-03T05:58:55.967Z,73.74
2022-08-03T06:01:22.639Z,73.65
2022-08-03T06:03:49.982Z,73.80
2022-08-03T06:06:17.350Z,73.38
2022-08-03T06:08:45.585Z,72.96
2022-08-03T06:11:12.849Z,72.50
2022-08-03T06:13:41.666Z,72.74
2022-08-03T06:16:08.624Z,72.61
2022-08-03T06:18:35.290Z,72.33
2022-08-03T06:21:15.208Z,71.99
2022-08-03T06:23:54.141Z,71.88
2022-08-03T06:26:26.951Z,71.00
2022-08-03T06:28:55.586Z,70.62
2022-08-03T06:31:24.336Z,70.37
2022-08-03T06:34:33.905Z,70.06
2022-08-03T06:36:38.011Z,69.84
2022-08-03T06:39:04.997Z,69.32
2022-08-03T06:41:31.630Z,69.12
2022-08-03T06:44:09.233Z,68.67
2022-08-03T06:46:37.085Z,68.50
2022-08-03T06:49:03.733Z,68.14
2022-08-03T06:52:04.357Z,67.74
2022-08-03T06:54:17.158Z,67.73
2022-08-03T06:56:43.804Z,66.96
2022-08-03T07:00:10.527Z,66.50
2022-08-03T07:01:58.437Z,66.12
2022-08-03T07:04:25.185Z,65.35
2022-08-03T07:06:51.826Z,65.12
2022-08-03T07:09:18.433Z,62.83
2022-08-03T07:11:45.075Z,61.67
2022-08-03T07:14:12.965Z,60.38
2022-08-03T07:16:39.529Z,59.63
2022-08-03T07:19:06.063Z,59.27
2022-08-03T07:21:32.733Z,58.28
2022-08-03T07:23:59.319Z,58.95
2022-08-03T07:26:25.860Z,58.89
2022-08-03T07:28:52.394Z,58.09
2022-08-03T07:31:20.503Z,57.22
2022-08-03T07:33:47.036Z,57.04
2022-08-03T07:36:13.679Z,55.90
2022-08-03T07:38:40.250Z,54.93
2022-08-03T07:41:06.894Z,54.51
2022-08-03T07:43:33.451Z,54.37
2022-08-03T07:46:00.161Z,54.62
2022-08-03T07:48:28.126Z,53.31
2022-08-03T07:50:54.758Z,53.71
2022-08-03T07:53:21.339Z,53.21
2022-08-03T07:55:47.959Z,51.98
2022-08-03T07:58:14.554Z,52.02
2022-08-03T08:00:41.897Z,51.70
2022-08-03T08:03:08.659Z,51.30
2022-08-03T08:05:37.221Z,50.13
2022-08-03T08:08:04.953Z,50.44
2022-08-03T08:10:31.801Z,49.44
2022-08-03T08:12:58.946Z,48.86
2022-08-03T08:15:25.849Z,49.27
2022-08-03T08:17:55.323Z,48.35
2022-08-03T08:20:28.160Z,48.46
2022-08-03T08:23:01.261Z,49.00
2022-08-03T08:25:29.454Z,48.95
2022-08-03T08:28:22.541Z,47.92
2022-08-03T08:30:43.185Z,47.03
2022-08-03T08:33:22.418Z,46.29
2022-08-03T08:35:50.935Z,45.51
2022-08-03T08:38:18.991Z,45.62
2022-08-03T08:40:46.120Z,45.15
2022-08-03T08:43:12.717Z,44.66
2022-08-03T08:45:40.876Z,44.36
2022-08-03T08:48:10.531Z,43.74
2022-08-03T08:50:38.663Z,43.96
2022-08-03T08:53:17.352Z,43.80
2022-08-03T08:55:59.206Z,44.38
2022-08-03T08:58:29.850Z,43.70
2022-08-03T09:00:57.147Z,42.72
2022-08-03T09:03:30.182Z,41.41
2022-08-03T09:05:59.609Z,42.39
2022-08-03T09:08:26.211Z,40.96
2022-08-03T09:10:54.336Z,41.06
2022-08-03T09:13:21.180Z,40.16
2022-08-03T09:15:57.240Z,40.24
2022-08-03T09:18:32.202Z,39.88
2022-08-03T09:21:30.047Z,39.83
2022-08-03T09:24:03.412Z,39.26
2022-08-03T09:26:34.343Z,39.74
2022-08-03T09:29:09.286Z,39.98
2022-08-03T09:31:39.424Z,38.73
2022-08-03T09:34:11.819Z,37.83
2022-08-03T09:36:40.895Z,36.16
2022-08-03T09:39:09.808Z,36.41
2022-08-03T09:41:39.528Z,36.72
2022-08-03T09:44:06.509Z,36.68
2022-08-03T09:46:50.088Z,36.59
2022-08-03T09:49:17.308Z,36.02
2022-08-03T09:52:32.530Z,35.54
2022-08-03T09:54:32.415Z,35.90
2022-08-03T09:57:00.816Z,35.05
2022-08-03T09:59:28.857Z,34.96
2022-08-03T10:01:56.433Z,35.19
2022-08-03T10:04:23.682Z,35.66
2022-08-03T10:07:04.743Z,35.43
2022-08-03T10:09:31.588Z,33.55
2022-08-03T10:12:06.647Z,34.20
2022-08-03T10:14:33.932Z,33.64
2022-08-03T10:17:00.526Z,33.11
2022-08-03T10:19:27.220Z,33.05
2022-08-03T10:21:55.902Z,33.03
2022-08-03T10:24:26.005Z,32.59
2022-08-03T10:26:56.912Z,32.14
2022-08-03T10:29:28.666Z,32.17
2022-08-03T10:31:59.025Z,31.86
2022-08-03T10:34:28.902Z,31.81
2022-08-03T10:37:00.000Z,32.05
2022-08-03T10:39:29.851Z,32.38
2022-08-03T10:41:57.790Z,31.72
2022-08-03T10:44:29.469Z,32.12
2022-08-03T10:46:56.859Z,32.09
2022-08-03T10:49:33.939Z,32.34
2022-08-03T10:52:02.778Z,32.20
2022-08-03T10:54:41.478Z,31.27
2022-08-03T10:57:48.858Z,31.02
2022-08-03T11:00:18.923Z,31.76
2022-08-03T11:03:15.632Z,30.63
2022-08-03T11:05:43.615Z,30.76
2022-08-03T11:08:25.150Z,31.71
2022-08-03T11:10:53.231Z,31.71
2022-08-03T11:13:21.554Z,31.59
2022-08-03T11:15:53.305Z,31.13
2022-08-03T11:18:27.556Z,30.86
2022-08-03T11:20:56.186Z,30.35
2022-08-03T11:24:04.630Z,30.68
2022-08-03T11:26:28.723Z,30.67
2022-08-03T11:29:27.837Z,30.38
2022-08-03T11:31:55.950Z,30.31
2022-08-03T11:34:22.635Z,30.29
2022-08-03T11:37:27.536Z,29.69
2022-08-03T11:39:56.944Z,30.01
2022-08-03T11:42:40.140Z,30.02
2022-08-03T11:45:08.997Z,30.10
2022-08-03T11:47:50.638Z,29.18
2022-08-03T11:50:18.738Z,29.31
2022-08-03T11:52:45.419Z,29.16
2022-08-03T11:55:15.576Z,28.86
2022-08-03T11:59:15.255Z,28.98
2022-08-03T12:00:30.902Z,28.65
2022-08-03T12:03:04.527Z,27.98
2022-08-03T12:05:51.138Z,28.16
2022-08-03T12:08:29.844Z,27.18
2022-08-03T12:10:58.276Z,27.54
2022-08-03T12:14:43.764Z,27.92
2022-08-03T12:16:18.233Z,27.26
2022-08-03T12:18:46.285Z,28.15
2022-08-03T12:21:12.932Z,27.34
2022-08-03T12:23:39.683Z,27.28
2022-08-03T12:26:08.061Z,26.61
2022-08-03T12:28:37.616Z,25.98
2022-08-03T12:31:06.663Z,26.37
2022-08-03T12:33:59.035Z,26.18
2022-08-03T12:36:26.287Z,26.04
2022-08-03T12:38:56.025Z,26.31
2022-08-03T12:41:29.962Z,26.73
2022-08-03T12:43:56.840Z,26.00
2022-08-03T12:46:30.645Z,26.69
2022-08-03T12:49:05.475Z,26.36
2022-08-03T12:51:35.047Z,26.83
2022-08-03T12:54:02.089Z,27.07
2022-08-03T12:56:28.917Z,27.17
2022-08-03T12:58:55.966Z,26.51
2022-08-03T13:01:22.872Z,26.70
2022-08-03T13:03:52.974Z,27.21
2022-08-03T13:06:23.549Z,27.20
2022-08-03T13:09:01.097Z,26.84
2022-08-03T13:11:43.425Z,27.21
2022-08-03T13:14:20.038Z,27.33
2022-08-03T13:16:48.018Z,26.89
2022-08-03T13:19:16.126Z,27.24
2022-08-03T13:22:03.601Z,27.11
2022-08-03T13:24:32.402Z,26.52
2022-08-03T13:26:59.079Z,26.63
2022-08-03T13:29:25.877Z,26.81
2022-08-03T13:31:52.860Z,25.72
2022-08-03T13:34:23.433Z,25.03
2022-08-03T13:37:08.503Z,24.99
2022-08-03T13:39:58.054Z,25.07
2022-08-03T13:42:23.134Z,24.28
2022-08-03T13:44:49.761Z,23.58
2022-08-03T13:47:16.602Z,23.96
2022-08-03T13:49:54.267Z,23.92
2022-08-03T13:52:31.727Z,23.85
2022-08-03T13:54:58.464Z,23.40
2022-08-03T13:58:03.025Z,23.94
2022-08-03T14:00:13.031Z,23.91
2022-08-03T14:02:53.009Z,23.75
2022-08-03T14:05:19.661Z,23.36
2022-08-03T14:07:47.676Z,23.95
2022-08-03T14:10:14.297Z,23.86
2022-08-03T14:12:40.950Z,23.38
2022-08-03T14:15:08.690Z,23.33
2022-08-03T14:17:49.735Z,23.05
2022-08-03T14:20:37.126Z,23.40
2022-08-03T14:23:04.938Z,23.32
2022-08-03T14:25:43.180Z,23.68
2022-08-03T14:28:11.782Z,23.02
2022-08-03T14:30:38.439Z,22.87
2022-08-03T14:33:05.084Z,22.92
2022-08-03T14:35:31.631Z,22.37
2022-08-03T14:37:58.615Z,22.39
2022-08-03T14:40:26.542Z,22.89
2022-08-03T14:42:53.261Z,22.50
2022-08-03T14:45:20.751Z,21.78
2022-08-03T14:50:32.923Z,21.60
2022-08-03T14:50:42.963Z,21.50
2022-08-03T14:53:12.458Z,21.10
2022-08-03T14:55:49.373Z,20.90
2022-08-03T14:58:20.806Z,20.35
2022-08-03T15:00:49.394Z,19.87
2022-08-03T15:03:16.920Z,19.77
2022-08-03T15:05:44.070Z,19.85
2022-08-03T15:08:10.682Z,19.43
2022-08-03T15:10:40.659Z,19.69
2022-08-03T15:13:13.503Z,19.98
2022-08-03T15:15:40.728Z,19.82
2022-08-03T15:18:07.791Z,19.58
2022-08-03T15:20:49.906Z,19.59
2022-08-03T15:23:18.095Z,19.30
2022-08-03T15:26:06.447Z,19.47
2022-08-03T15:28:33.971Z,19.19
2022-08-03T15:31:00.856Z,19.31
2022-08-03T15:33:28.049Z,19.19
2022-08-03T15:35:54.831Z,19.02
2022-08-03T15:38:21.564Z,18.91
2022-08-03T15:40:48.207Z,19.00
2022-08-03T15:43:14.858Z,18.19
2022-08-03T15:45:42.947Z,18.31
2022-08-03T15:48:09.553Z,18.17
2022-08-03T15:50:36.154Z,18.15
2022-08-03T15:53:02.994Z,17.67
2022-08-03T15:55:29.715Z,17.92
2022-08-03T15:59:09.397Z,17.93
2022-08-03T16:00:44.767Z,17.47
2022-08-03T16:03:11.443Z,18.04
2022-08-03T16:05:38.138Z,17.38
2022-08-03T16:08:07.081Z,17.48
2022-08-03T16:10:36.998Z,17.32
2022-08-03T16:13:03.620Z,17.37
2022-08-03T16:15:30.331Z,17.22
2022-08-03T16:17:58.358Z,17.32
2022-08-03T16:20:29.242Z,17.26
2022-08-03T16:23:01.557Z,17.50
2022-08-03T16:25:35.829Z,17.68
2022-08-03T16:28:07.737Z,16.94
2022-08-03T16:30:40.071Z,16.42
2022-08-03T16:33:08.367Z,16.99
2022-08-03T16:35:35.104Z,16.68
2022-08-03T16:38:04.366Z,16.54
2022-08-03T16:40:33.487Z,16.72
2022-08-03T16:43:17.815Z,16.86
2022-08-03T16:45:45.616Z,16.78
2022-08-03T16:48:14.227Z,16.59
2022-08-03T16:50:40.881Z,16.58
2022-08-03T16:53:09.835Z,16.17
2022-08-03T16:55:43.368Z,15.86
2022-08-03T16:58:19.090Z,16.67
2022-08-03T17:01:00.990Z,17.10
2022-08-03T17:03:57.436Z,17.88
2022-08-03T17:06:26.546Z,18.79
2022-08-03T17:09:01.872Z,18.71
2022-08-03T17:11:30.035Z,20.08
2022-08-03T17:14:00.174Z,20.12
2022-08-03T17:16:27.186Z,20.34
2022-08-03T17:18:58.462Z,20.30
2022-08-03T17:21:31.093Z,20.32
2022-08-03T17:24:12.270Z,19.90
2022-08-03T17:26:43.336Z,19.57
2022-08-03T17:29:13.169Z,19.61
2022-08-03T17:31:48.690Z,19.85
2022-08-03T17:34:18.887Z,19.39
2022-08-03T17:37:04.213Z,20.02
2022-08-03T17:39:57.177Z,20.85
2022-08-03T17:42:30.183Z,19.73
2022-08-03T17:45:02.414Z,19.32
2022-08-03T17:47:41.935Z,18.55
2022-08-03T17:50:25.230Z,18.57
2022-08-03T17:53:07.682Z,17.58
2022-08-03T17:55:57.227Z,18.38
2022-08-03T17:58:52.565Z,19.05
2022-08-03T18:02:00.884Z,19.86
2022-08-03T18:04:12.360Z,20.53
2022-08-03T18:06:55.833Z,20.15
2022-08-03T18:10:03.353Z,20.72
2022-08-03T18:12:18.584Z,22.59
2022-08-03T18:14:59.205Z,23.46
2022-08-03T18:17:55.024Z,23.95
2022-08-03T18:20:31.055Z,24.45
2022-08-03T18:23:04.631Z,24.98
2022-08-03T18:25:45.669Z,26.25
2022-08-03T18:28:18.682Z,27.03
2022-08-03T18:30:54.194Z,27.42
2022-08-03T18:34:19.021Z,28.15
2022-08-03T18:36:10.375Z,28.58
2022-08-03T18:38:40.404Z,29.17
2022-08-03T18:41:15.694Z,29.63
2022-08-03T18:43:47.286Z,31.11
2022-08-03T18:46:26.477Z,32.52
2022-08-03T18:49:00.154Z,33.20
2022-08-03T18:51:43.260Z,34.64
2022-08-03T18:57:12.416Z,36.37
2022-08-03T18:59:52.209Z,36.65
2022-08-03T19:02:28.645Z,37.19
2022-08-03T19:05:04.623Z,38.06
2022-08-03T19:07:36.153Z,38.71
2022-08-03T19:10:06.934Z,39.88
2022-08-03T19:12:39.854Z,40.17
2022-08-03T19:15:12.596Z,40.54
2022-08-03T19:17:41.307Z,41.00
2022-08-03T19:20:09.165Z,40.98
2022-08-03T19:22:36.852Z,41.31
2022-08-03T19:25:06.448Z,41.50
2022-08-03T19:27:39.787Z,41.59
2022-08-03T19:30:21.864Z,42.13
2022-08-03T19:32:54.220Z,42.49
2022-08-03T19:35:52.007Z,43.32
2022-08-03T19:38:09.970Z,44.07
2022-08-03T19:40:42.146Z,44.34
2022-08-03T19:43:11.554Z,44.61
2022-08-03T19:46:05.091Z,45.01
2022-08-03T19:48:34.213Z,45.04
2022-08-03T19:51:02.682Z,45.50
2022-08-03T19:53:44.859Z,45.58
2022-08-03T19:56:15.843Z,45.88
2022-08-03T19:58:42.585Z,46.64
2022-08-03T20:01:19.163Z,46.49
2022-08-03T20:03:48.879Z,46.32
2022-08-03T20:06:16.871Z,46.88
2022-08-03T20:08:44.442Z,46.78
2022-08-03T20:11:12.799Z,46.83
2022-08-03T20:13:44.056Z,46.89
2022-08-03T20:16:15.163Z,47.75
2022-08-03T20:18:42.675Z,48.08
2022-08-03T20:21:14.755Z,48.20
2022-08-03T20:23:58.077Z,48.43
2022-08-03T20:26:31.494Z,48.93
2022-08-03T20:29:09.157Z,49.29
2022-08-03T20:31:36.991Z,49.21
2022-08-03T20:34:03.927Z,49.87
2022-08-03T20:36:30.572Z,49.97
2022-08-03T20:38:58.185Z,50.43
2022-08-03T20:41:25.361Z,50.54
2022-08-03T20:43:53.497Z,51.16
2022-08-03T20:46:32.745Z,51.91
2022-08-03T20:49:06.544Z,52.56
2022-08-03T20:51:49.698Z,52.94
2022-08-03T20:54:29.287Z,53.46
2022-08-03T20:56:57.635Z,53.52
2022-08-03T20:59:26.850Z,53.79
2022-08-03T21:01:53.646Z,54.10
2022-08-03T21:04:21.960Z,53.98
2022-08-03T21:06:54.559Z,53.97
2022-08-03T21:09:33.313Z,54.39
2022-08-03T21:12:12.086Z,54.55
2022-08-03T21:13:00.958Z,34.32
2022-08-03T21:14:51.881Z,54.66
2022-08-03T21:17:39.139Z,55.03
2022-08-03T21:20:09.530Z,55.40
2022-08-03T21:22:37.783Z,55.50
2022-08-03T21:25:07.417Z,55.68
2022-08-03T21:27:35.432Z,56.19
2022-08-03T21:30:07.531Z,56.29
2022-08-03T21:32:34.361Z,56.52
2022-08-03T21:35:01.506Z,56.63
2022-08-03T21:37:28.833Z,57.26
2022-08-03T21:39:56.018Z,57.12
2022-08-03T21:42:23.458Z,57.45
2022-08-03T21:44:50.924Z,57.72
2022-08-03T21:47:20.838Z,57.85
2022-08-03T21:50:08.534Z,57.96
2022-08-03T21:52:41.268Z,57.91
2022-08-03T21:55:08.697Z,58.07
2022-08-03T21:57:51.390Z,58.43
2022-08-03T22:00:20.438Z,58.54
2022-08-03T22:02:53.174Z,59.24
2022-08-03T22:05:28.134Z,59.16
2022-08-03T22:08:10.750Z,59.63
2022-08-03T22:10:37.859Z,59.88
2022-08-03T22:13:04.707Z,60.22
2022-08-03T22:15:32.719Z,60.35
2022-08-03T22:18:01.257Z,60.55
2022-08-03T22:20:27.791Z,60.50
2022-08-03T22:22:59.796Z,60.88
2022-08-03T22:25:28.379Z,61.05
2022-08-03T22:27:55.413Z,61.18
2022-08-03T22:30:22.812Z,61.37
2022-08-03T22:32:51.876Z,61.87
2022-08-03T22:35:24.097Z,62.08
2022-08-03T22:37:54.256Z,62.54
2022-08-03T22:40:21.350Z,62.81
2022-08-03T22:42:48.681Z,63.12
2022-08-03T22:46:07.542Z,63.51
2022-08-03T22:48:07.262Z,63.78
2022-08-03T22:50:35.804Z,64.30
2022-08-03T22:53:03.191Z,64.24
2022-08-03T22:55:29.971Z,64.35
2022-08-03T22:57:56.728Z,64.76
2022-08-03T23:00:24.214Z,64.93
2022-08-03T23:02:53.283Z,65.24
2022-08-03T23:06:01.277Z,65.17
2022-08-03T23:08:14.401Z,65.42
2022-08-03T23:10:46.798Z,65.25
2022-08-03T23:13:16.204Z,65.55
2022-08-03T23:15:47.297Z,65.66
2022-08-03T23:18:15.639Z,66.06
2022-08-03T23:20:42.602Z,65.82
2022-08-03T23:23:14.282Z,66.11
2022-08-03T23:25:47.272Z,66.25
2022-08-03T23:28:15.029Z,66.65
2022-08-03T23:30:42.704Z,67.06
2022-08-03T23:33:12.304Z,67.27
2022-08-03T23:36:29.595Z,67.16
2022-08-03T23:38:29.814Z,67.61
2022-08-03T23:40:58.753Z,67.70
2022-08-03T23:43:51.686Z,67.82
2022-08-03T23:46:14.439Z,68.09
2022-08-03T23:48:44.910Z,68.52
2022-08-03T23:51:23.439Z,68.50
2022-08-03T23:54:01.888Z,68.42
2022-08-03T23:56:41.299Z,68.72
2022-08-03T23:59:21.755Z,68.95
